Time;durP1;ratioP1;P1;durP2;ratioP2;P2;SDS_P1;SDS_P2;PMS_P1;PMS_P2;Temp;Humidity;BMP_temperature;BMP_pressure;BME280_temperature;BME280_humidity;BME280_pressure;Samples;Min_cycle;Max_cycle;Signal;HPM_P1;HPM_P2
2022/01/01 00:00:09;;;;;;;12.27;10.32;;;13.10;99.90;;;;;;5041458;28;20267;-58
2022/01/01 00:02:54;;;;;;;10.50;9.23;;;13.00;99.90;;;;;;5041145;28;20548;-57
2022/01/01 00:05:38;;;;;;;12.07;8.90;;;13.00;99.90;;;;;;5056171;28;20036;-57
2022/01/01 00:08:22;;;;;;;12.07;9.60;;;12.90;99.90;;;;;;5056221;28;20044;-57
2022/01/01 00:11:06;;;;;;;11.10;9.43;;;12.90;99.90;;;;;;5056597;28;20083;-58
2022/01/01 00:13:50;;;;;;;10.10;8.53;;;12.90;99.90;;;;;;5056101;28;20143;-61
2022/01/01 00:16:34;;;;;;;14.23;9.45;;;13.00;99.90;;;;;;5056072;28;20305;-57
2022/01/01 00:19:19;;;;;;;11.07;9.88;;;13.00;99.90;;;;;;5055642;28;20079;-55
2022/01/01 00:22:03;;;;;;;10.90;9.63;;;13.10;99.90;;;;;;5054627;28;20048;-59
2022/01/01 00:24:47;;;;;;;13.27;9.90;;;13.10;99.90;;;;;;5055720;28;20028;-56
2022/01/01 00:27:32;;;;;;;9.77;8.70;;;13.00;99.90;;;;;;5056083;28;20056;-57
2022/01/01 00:30:16;;;;;;;11.55;9.07;;;13.10;99.90;;;;;;5035932;28;20044;-56
2022/01/01 00:33:00;;;;;;;12.48;9.25;;;13.10;99.90;;;;;;5037436;28;20094;-57
2022/01/01 00:35:44;;;;;;;10.63;8.60;;;13.10;99.90;;;;;;5055701;28;20044;-58
2022/01/01 00:38:28;;;;;;;11.23;8.83;;;13.00;99.90;;;;;;5055553;28;20036;-57
2022/01/01 00:41:12;;;;;;;13.77;9.40;;;13.00;99.90;;;;;;5055189;28;20320;-60
2022/01/01 00:43:57;;;;;;;12.85;9.05;;;12.90;99.90;;;;;;5042312;28;20036;-56
2022/01/01 00:46:41;;;;;;;10.25;8.98;;;12.90;99.90;;;;;;5056168;28;20071;-56
2022/01/01 00:49:25;;;;;;;12.40;9.07;;;13.00;99.90;;;;;;5056014;28;20570;-55
2022/01/01 00:52:09;;;;;;;66.63;16.48;;;12.90;99.90;;;;;;5056379;28;20514;-55
2022/01/01 00:54:53;;;;;;;15.05;8.50;;;12.80;99.90;;;;;;5055870;28;20043;-55
2022/01/01 00:57:38;;;;;;;18.00;8.15;;;12.90;99.90;;;;;;5056333;28;20048;-56
2022/01/01 01:00:23;;;;;;;11.60;9.20;;;12.90;99.90;;;;;;5056652;28;20028;-56
2022/01/01 01:03:12;;;;;;;10.47;9.40;;;13.00;99.90;;;;;;5056718;28;20039;-57
2022/01/01 01:05:58;;;;;;;13.35;9.18;;;13.00;99.90;;;;;;5056197;28;20040;-56
2022/01/01 01:08:42;;;;;;;10.98;9.35;;;13.00;99.90;;;;;;5054835;28;20036;-57
2022/01/01 01:11:27;;;;;;;11.70;9.37;;;13.00;99.90;;;;;;5053938;28;20451;-56
2022/01/01 01:14:19;;;;;;;10.65;9.40;;;13.00;99.90;;;;;;5054843;28;20310;-55
2022/01/01 01:17:03;;;;;;;11.38;10.18;;;13.00;99.90;;;;;;5055055;28;20044;-56
2022/01/01 01:19:47;;;;;;;8.87;7.77;;;13.10;99.90;;;;;;5054883;28;20056;-53
2022/01/01 01:22:31;;;;;;;11.87;10.10;;;13.20;99.90;;;;;;5054890;28;20082;-56
2022/01/01 01:25:16;;;;;;;152.90;24.27;;;13.10;99.90;;;;;;5037507;28;20763;-56
2022/01/01 01:28:07;;;;;;;13.52;8.85;;;13.10;99.90;;;;;;5054575;28;20040;-55
2022/01/01 01:30:51;;;;;;;11.20;9.25;;;13.10;99.90;;;;;;5052057;28;20428;-55
2022/01/01 01:33:35;;;;;;;15.23;8.80;;;13.00;99.90;;;;;;5054086;28;20039;-58
2022/01/01 01:36:19;;;;;;;14.25;8.73;;;13.00;99.90;;;;;;5054896;28;20480;-55
2022/01/01 01:39:03;;;;;;;14.60;9.60;;;13.10;99.90;;;;;;5055635;28;20039;-52
2022/01/01 01:41:47;;;;;;;13.88;9.07;;;13.00;99.90;;;;;;5054886;28;20083;-55
2022/01/01 01:44:41;;;;;;;10.93;9.13;;;13.00;99.90;;;;;;5055642;28;20127;-56
2022/01/01 01:47:31;;;;;;;12.02;8.43;;;12.90;99.90;;;;;;5055365;28;21022;-56
2022/01/01 01:50:18;;;;;;;10.60;8.93;;;12.90;99.90;;;;;;5054952;28;20079;-54
2022/01/01 01:53:02;;;;;;;13.10;8.82;;;12.90;99.90;;;;;;5054998;28;20528;-55
2022/01/01 01:55:47;;;;;;;12.02;9.15;;;12.80;99.90;;;;;;5053504;28;20036;-58
2022/01/01 01:58:35;;;;;;;9.65;8.65;;;12.90;99.90;;;;;;5054332;28;20055;-56
2022/01/01 02:01:23;;;;;;;10.55;9.20;;;13.00;99.90;;;;;;5053705;28;20566;-57
2022/01/01 02:04:08;;;;;;;9.73;8.32;;;13.00;99.90;;;;;;5054046;28;20086;-55
2022/01/01 02:06:52;;;;;;;11.57;9.43;;;13.00;99.90;;;;;;5054039;28;20059;-52
2022/01/01 02:09:38;;;;;;;9.93;8.52;;;13.10;99.90;;;;;;5053338;28;20444;-57
2022/01/01 02:12:23;;;;;;;9.82;8.80;;;13.00;99.90;;;;;;5052788;28;20075;-52
2022/01/01 02:15:25;;;;;;;10.52;9.43;;;13.00;99.90;;;;;;5054021;28;20067;-55
2022/01/01 02:18:09;;;;;;;12.60;9.13;;;13.10;99.90;;;;;;5052604;28;20405;-54
2022/01/01 02:20:56;;;;;;;11.30;8.88;;;13.00;99.90;;;;;;5054601;28;20527;-58
2022/01/01 02:23:46;;;;;;;11.57;8.88;;;13.00;99.90;;;;;;5053210;28;20095;-54
2022/01/01 02:26:34;;;;;;;10.63;8.40;;;13.00;99.90;;;;;;5054530;28;20052;-56
2022/01/01 02:29:19;;;;;;;12.07;8.70;;;13.00;99.90;;;;;;5034527;28;20087;-52
2022/01/01 02:32:07;;;;;;;;;;;13.00;99.90;;;;;;5037531;28;20085;-52
2022/01/01 02:34:51;;;;;;;9.77;8.63;;;12.90;99.90;;;;;;5053461;28;19999;-60
2022/01/01 02:37:36;;;;;;;13.20;9.83;;;12.80;99.90;;;;;;5053009;28;20655;-52
2022/01/01 02:40:21;;;;;;;13.77;9.27;;;12.80;99.90;;;;;;5053921;28;20097;-55
2022/01/01 02:43:05;;;;;;;11.23;8.20;;;12.80;99.90;;;;;;5052736;28;20087;-57
2022/01/01 02:45:50;;;;;;;14.07;10.23;;;12.80;99.90;;;;;;5055240;28;20098;-54
2022/01/01 02:48:34;;;;;;;11.13;9.57;;;12.80;99.90;;;;;;5054664;28;20261;-57
2022/01/01 02:51:18;;;;;;;10.57;9.10;;;12.80;99.90;;;;;;5055026;28;20082;-55
2022/01/01 02:54:02;;;;;;;10.45;8.82;;;12.90;99.90;;;;;;5050894;28;20039;-55
2022/01/01 02:56:48;;;;;;;11.05;8.57;;;13.00;99.90;;;;;;5055484;28;20465;-54
2022/01/01 02:59:32;;;;;;;12.90;8.63;;;12.90;99.90;;;;;;5033494;28;20123;-55
2022/01/01 03:02:17;;;;;;;11.40;8.87;;;12.90;99.90;;;;;;5035712;28;20037;-57
2022/01/01 03:05:01;;;;;;;11.52;9.20;;;12.80;99.90;;;;;;5039240;28;20071;-54
2022/01/01 03:07:46;;;;;;;9.70;8.70;;;12.90;99.90;;;;;;5053847;28;20404;-56
2022/01/01 03:10:30;;;;;;;;;;;12.90;99.90;;;;;;5054765;28;20036;-53
2022/01/01 03:13:14;;;;;;;11.25;9.07;;;12.80;99.90;;;;;;5053832;28;19935;-56
2022/01/01 03:15:58;;;;;;;11.97;9.37;;;12.80;99.90;;;;;;5054043;28;20063;-53
2022/01/01 03:18:42;;;;;;;14.73;8.97;;;12.80;99.90;;;;;;5054024;28;20059;-55
2022/01/01 03:21:26;;;;;;;12.13;8.75;;;12.80;99.90;;;;;;5053920;28;20439;-55
2022/01/01 03:24:10;;;;;;;12.47;9.00;;;12.70;99.90;;;;;;5053350;28;20511;-54
2022/01/01 03:26:54;;;;;;;10.63;9.40;;;12.80;99.90;;;;;;5053329;28;20063;-52
2022/01/01 03:29:38;;;;;;;10.55;9.05;;;12.80;99.90;;;;;;5052951;28;20105;-55
2022/01/01 03:32:22;;;;;;;12.02;9.48;;;12.70;99.90;;;;;;5053034;28;20511;-55
2022/01/01 03:35:06;;;;;;;12.10;9.87;;;12.70;99.90;;;;;;5053568;28;20078;-54
2022/01/01 03:37:51;;;;;;;10.75;9.10;;;12.70;99.90;;;;;;5052460;28;20515;-53
2022/01/01 03:40:35;;;;;;;12.80;9.88;;;12.70;99.90;;;;;;5054240;28;20040;-55
2022/01/01 03:43:19;;;;;;;13.00;10.02;;;12.60;99.90;;;;;;5053163;28;20060;-59
2022/01/01 03:46:03;;;;;;;10.93;9.55;;;12.60;99.90;;;;;;5052496;28;20044;-51
2022/01/01 03:48:47;;;;;;;10.27;8.90;;;12.70;99.90;;;;;;5055684;28;20040;-52
2022/01/01 03:51:31;;;;;;;12.45;9.20;;;12.70;99.90;;;;;;5050782;28;20086;-56
2022/01/01 03:54:16;;;;;;;13.10;9.48;;;12.70;99.90;;;;;;5054342;28;20051;-54
2022/01/01 03:57:01;;;;;;;10.50;8.60;;;12.70;99.90;;;;;;5057117;28;20043;-56
2022/01/01 03:59:45;;;;;;;10.50;8.40;;;12.70;99.90;;;;;;5054668;28;20117;-54
2022/01/01 04:02:29;;;;;;;12.20;8.60;;;12.60;99.90;;;;;;5058245;28;20085;-55
2022/01/01 04:05:15;;;;;;;13.50;9.77;;;12.60;99.90;;;;;;5057580;28;20266;-55
2022/01/01 04:07:59;;;;;;;9.68;8.60;;;12.60;99.90;;;;;;5055530;28;20032;-55
2022/01/01 04:10:43;;;;;;;11.20;9.03;;;12.60;99.90;;;;;;5060477;28;20048;-53
2022/01/01 04:13:27;;;;;;;12.90;9.10;;;12.60;99.90;;;;;;5055852;28;20032;-53
2022/01/01 04:16:12;;;;;;;9.13;8.20;;;12.50;99.90;;;;;;5053649;28;20052;-54
2022/01/01 04:18:56;;;;;;;13.87;8.93;;;12.50;99.90;;;;;;5054650;28;20048;-52
2022/01/01 04:21:40;;;;;;;13.53;9.00;;;12.50;99.90;;;;;;5045904;28;20060;-55
2022/01/01 04:24:24;;;;;;;10.47;8.10;;;12.50;99.90;;;;;;5036295;28;20036;-54
2022/01/01 04:27:08;;;;;;;9.43;7.87;;;12.50;99.90;;;;;;5055720;28;20078;-55
2022/01/01 04:29:52;;;;;;;10.18;8.63;;;12.60;99.90;;;;;;5068933;28;20090;-51
2022/01/01 04:32:36;;;;;;;11.70;8.17;;;12.50;99.90;;;;;;5055516;28;20048;-54
2022/01/01 04:35:21;;;;;;;10.13;8.30;;;12.50;99.90;;;;;;5052188;28;20082;-54
2022/01/01 04:38:10;;;;;;;11.57;7.95;;;12.50;99.90;;;;;;5049796;28;20052;-52
2022/01/01 04:40:54;;;;;;;9.85;8.50;;;12.50;99.90;;;;;;5056601;28;20071;-56
2022/01/01 04:43:40;;;;;;;9.97;8.00;;;12.60;99.90;;;;;;5054696;28;20051;-55
2022/01/01 04:46:24;;;;;;;9.43;7.25;;;12.50;99.90;;;;;;5056648;28;20262;-56
2022/01/01 04:49:08;;;;;;;7.95;7.15;;;12.60;99.90;;;;;;5055952;28;20036;-55
2022/01/01 04:51:52;;;;;;;9.85;6.68;;;12.60;99.90;;;;;;5055004;28;20086;-55
2022/01/01 04:54:41;;;;;;;8.50;7.50;;;12.60;99.90;;;;;;5055941;28;20515;-52
2022/01/01 04:57:30;;;;;;;8.80;6.90;;;12.60;99.90;;;;;;5055080;28;20071;-54
2022/01/01 05:00:14;;;;;;;8.40;6.60;;;12.60;99.90;;;;;;5053568;28;20067;-54
2022/01/01 05:02:58;;;;;;;9.38;6.72;;;12.60;99.90;;;;;;5055629;28;20067;-52
2022/01/01 05:05:42;;;;;;;9.63;7.25;;;12.70;99.90;;;;;;5054638;28;20086;-56
2022/01/01 05:08:26;;;;;;;8.30;7.45;;;12.70;99.90;;;;;;5054669;28;20031;-50
2022/01/01 05:11:10;;;;;;;8.93;6.30;;;12.70;99.90;;;;;;5055062;28;20090;-54
2022/01/01 05:13:54;;;;;;;8.85;6.70;;;12.80;99.90;;;;;;5054912;28;20048;-54
2022/01/01 05:16:39;;;;;;;9.13;6.30;;;12.70;99.90;;;;;;5055549;28;20070;-57
2022/01/01 05:19:23;;;;;;;9.77;6.20;;;12.80;99.90;;;;;;5053652;28;20047;-55
2022/01/01 05:22:07;;;;;;;8.05;6.32;;;12.70;99.90;;;;;;5048443;28;20048;-54
2022/01/01 05:24:51;;;;;;;9.77;6.63;;;12.70;99.90;;;;;;5054764;28;20032;-54
2022/01/01 05:27:36;;;;;;;9.73;6.27;;;12.70;99.90;;;;;;5054418;28;20068;-54
2022/01/01 05:30:20;;;;;;;;;;;12.70;99.90;;;;;;5055757;28;20267;-56
2022/01/01 05:33:04;;;;;;;8.52;6.10;;;12.70;99.90;;;;;;5055409;28;20061;-54
2022/01/01 05:35:49;;;;;;;8.47;6.10;;;12.60;99.90;;;;;;5047348;28;20028;-53
2022/01/01 05:38:33;;;;;;;7.07;5.85;;;12.60;99.90;;;;;;5053484;28;20790;-55
2022/01/01 05:41:17;;;;;;;7.78;6.35;;;12.60;99.90;;;;;;5051699;28;20051;-55
2022/01/01 05:44:01;;;;;;;8.70;6.65;;;12.70;99.90;;;;;;5053487;28;20040;-57
2022/01/01 05:46:45;;;;;;;10.20;6.32;;;12.60;99.90;;;;;;5055742;28;20511;-57
2022/01/01 05:49:29;;;;;;;7.53;6.10;;;12.60;99.90;;;;;;5053397;28;20056;-55
2022/01/01 05:52:14;;;;;;;7.57;5.65;;;12.50;99.90;;;;;;5054604;28;20079;-54
2022/01/01 05:54:58;;;;;;;8.90;6.07;;;12.60;99.90;;;;;;5019979;28;20136;-57
2022/01/01 05:57:42;;;;;;;9.57;6.40;;;12.60;99.90;;;;;;5055865;28;20035;-54
2022/01/01 06:00:26;;;;;;;7.73;5.43;;;12.60;99.90;;;;;;5056423;28;20043;-53
2022/01/01 06:03:10;;;;;;;7.70;6.00;;;12.50;99.90;;;;;;5055589;28;20334;-56
2022/01/01 06:05:54;;;;;;;8.00;5.97;;;12.60;99.90;;;;;;5055701;28;20056;-58
2022/01/01 06:08:38;;;;;;;8.50;6.07;;;12.60;99.90;;;;;;5054973;28;20635;-56
2022/01/01 06:11:22;;;;;;;11.63;6.13;;;12.50;99.90;;;;;;5054677;28;20762;-58
2022/01/01 06:14:06;;;;;;;7.93;5.97;;;12.50;99.90;;;;;;5054808;28;20736;-55
2022/01/01 06:16:50;;;;;;;11.80;6.55;;;12.60;99.90;;;;;;5054243;28;20067;-58
2022/01/01 06:19:35;;;;;;;7.70;6.30;;;12.50;99.90;;;;;;5053123;28;20243;-53
2022/01/01 06:22:19;;;;;;;7.57;5.75;;;12.50;99.90;;;;;;5053763;28;20127;-57
2022/01/01 06:25:03;;;;;;;7.43;6.50;;;12.40;99.90;;;;;;5054194;28;20167;-58
2022/01/01 06:27:48;;;;;;;8.98;6.25;;;12.40;99.90;;;;;;5053916;28;20086;-56
2022/01/01 06:30:35;;;;;;;10.27;6.35;;;12.40;99.90;;;;;;5054346;28;20032;-54
2022/01/01 06:33:21;;;;;;;8.32;6.65;;;12.40;99.90;;;;;;5050179;28;20040;-53
2022/01/01 06:36:05;;;;;;;8.77;6.47;;;12.40;99.90;;;;;;5036957;28;20421;-57
2022/01/01 06:38:50;;;;;;;8.93;6.03;;;12.40;99.90;;;;;;5053213;28;20089;-53
2022/01/01 06:41:34;;;;;;;7.85;6.38;;;12.40;99.90;;;;;;5052948;28;20071;-55
2022/01/01 06:44:18;;;;;;;8.00;6.20;;;12.40;99.90;;;;;;5054410;28;20075;-50
2022/01/01 06:47:02;;;;;;;8.57;6.82;;;12.40;99.90;;;;;;5053557;28;20321;-52
2022/01/01 06:49:46;;;;;;;8.88;6.43;;;12.30;99.90;;;;;;5054079;28;20064;-50
2022/01/01 06:52:31;;;;;;;8.60;6.60;;;12.40;99.90;;;;;;5053622;28;20040;-53
2022/01/01 06:55:15;;;;;;;9.93;7.07;;;12.40;99.90;;;;;;5054064;28;20044;-54
2022/01/01 06:57:59;;;;;;;10.53;7.33;;;12.40;99.90;;;;;;5052833;28;20082;-56
2022/01/01 07:00:43;;;;;;;9.23;6.33;;;12.40;99.90;;;;;;5054399;28;20067;-55
2022/01/01 07:03:28;;;;;;;9.95;7.13;;;12.40;99.90;;;;;;5045165;28;20084;-58
2022/01/01 07:06:12;;;;;;;8.18;6.68;;;12.40;99.90;;;;;;5054621;28;20047;-55
2022/01/01 07:08:57;;;;;;;8.10;6.38;;;12.40;99.90;;;;;;5053871;28;20031;-54
2022/01/01 07:11:42;;;;;;;10.45;6.63;;;12.40;99.90;;;;;;5053928;28;20039;-57
2022/01/01 07:14:27;;;;;;;8.35;6.60;;;12.30;99.90;;;;;;5054139;28;20040;-55
2022/01/01 07:17:11;;;;;;;9.40;6.00;;;12.50;99.90;;;;;;5053340;28;20118;-55
2022/01/01 07:19:57;;;;;;;7.35;5.55;;;12.50;99.90;;;;;;5053649;28;20064;-53
2022/01/01 07:22:43;;;;;;;8.65;5.43;;;12.50;99.90;;;;;;5056452;28;20102;-56
2022/01/01 07:25:28;;;;;;;8.40;5.63;;;12.60;99.90;;;;;;5059790;28;20059;-55
2022/01/01 07:28:16;;;;;;;10.43;5.43;;;12.60;99.90;;;;;;5057477;28;20036;-56
2022/01/01 07:31:00;;;;;;;9.13;6.32;;;12.60;99.90;;;;;;5057526;28;20056;-55
2022/01/01 07:33:44;;;;;;;6.82;5.95;;;12.50;99.90;;;;;;5058285;28;20047;-55
2022/01/01 07:36:28;;;;;;;7.70;5.30;;;12.60;99.90;;;;;;5057541;28;20087;-55
2022/01/01 07:39:13;;;;;;;7.80;5.25;;;12.60;99.90;;;;;;5057942;28;20444;-55
2022/01/01 07:41:58;;;;;;;8.80;5.55;;;12.50;99.90;;;;;;5056886;28;20592;-54
2022/01/01 07:44:43;;;;;;;8.18;6.00;;;12.50;99.90;;;;;;5056481;28;20060;-54
2022/01/01 07:47:27;;;;;;;7.82;6.35;;;12.50;99.90;;;;;;5057667;28;20051;-57
2022/01/01 07:50:11;;;;;;;8.43;5.80;;;12.40;99.90;;;;;;5056419;28;20043;-55
2022/01/01 07:52:56;;;;;;;8.10;5.85;;;12.40;99.90;;;;;;5035388;28;20128;-56
2022/01/01 07:55:42;;;;;;;9.77;5.63;;;12.40;99.90;;;;;;5044305;28;20132;-56
2022/01/01 07:58:27;;;;;;;12.52;7.43;;;12.60;99.90;;;;;;5056342;28;20040;-55
2022/01/01 08:01:11;;;;;;;7.33;6.07;;;12.50;99.90;;;;;;5056338;28;20039;-55
2022/01/01 08:04:01;;;;;;;9.57;6.20;;;12.50;99.90;;;;;;5055469;28;20728;-55
2022/01/01 08:06:45;;;;;;;7.45;5.57;;;12.60;99.90;;;;;;5056603;28;20556;-57
2022/01/01 08:09:30;;;;;;;9.27;6.00;;;12.60;99.90;;;;;;5057470;28;20028;-55
2022/01/01 08:12:14;;;;;;;10.53;6.17;;;12.70;99.90;;;;;;5056534;28;20152;-58
2022/01/01 08:14:58;;;;;;;11.57;6.65;;;12.70;99.90;;;;;;5056711;28;20402;-57
2022/01/01 08:17:43;;;;;;;12.20;5.93;;;12.70;99.90;;;;;;5056438;28;20044;-53
2022/01/01 08:20:27;;;;;;;9.43;6.32;;;12.80;99.90;;;;;;5055207;28;20091;-54
2022/01/01 08:23:12;;;;;;;8.57;6.07;;;12.80;99.90;;;;;;5055348;28;20456;-55
2022/01/01 08:25:58;;;;;;;10.80;5.85;;;12.70;99.90;;;;;;5056086;28;20112;-54
2022/01/01 08:28:42;;;;;;;10.63;6.15;;;12.70;99.90;;;;;;5056197;28;20032;-56
2022/01/01 08:31:29;;;;;;;11.52;6.65;;;12.80;99.90;;;;;;5055770;28;20035;-56
2022/01/01 08:34:14;;;;;;;10.13;6.60;;;12.80;99.90;;;;;;5053622;28;20090;-57
2022/01/01 08:36:58;;;;;;;13.70;7.73;;;12.70;99.90;;;;;;5056075;28;20059;-57
2022/01/01 08:39:42;;;;;;;9.43;6.77;;;12.70;99.90;;;;;;5051577;28;20060;-52
2022/01/01 08:42:26;;;;;;;9.77;7.22;;;12.80;99.90;;;;;;5055909;28;20515;-56
2022/01/01 08:45:10;;;;;;;10.40;6.53;;;12.80;99.90;;;;;;5056808;28;20083;-53
2022/01/01 08:47:54;;;;;;;14.20;6.50;;;12.80;99.90;;;;;;5055144;28;20091;-54
2022/01/01 08:50:38;;;;;;;8.93;6.68;;;12.80;99.90;;;;;;5040633;28;20298;-57
2022/01/01 08:53:23;;;;;;;11.68;6.82;;;12.90;99.90;;;;;;5054148;28;20106;-56
2022/01/01 08:56:07;;;;;;;15.68;7.47;;;12.80;99.90;;;;;;5054361;28;20043;-57
2022/01/01 08:58:52;;;;;;;9.70;6.32;;;12.80;99.90;;;;;;5042054;28;20028;-54
2022/01/01 09:01:36;;;;;;;12.05;6.57;;;12.70;99.90;;;;;;5047922;28;20040;-52
2022/01/01 09:04:20;;;;;;;12.45;6.60;;;12.80;99.90;;;;;;5036356;28;20460;-52
2022/01/01 09:07:04;;;;;;;8.07;6.20;;;12.80;99.90;;;;;;5068381;28;20074;-55
2022/01/01 09:09:48;;;;;;;11.87;6.50;;;12.80;99.90;;;;;;5043724;28;20104;-60
2022/01/01 09:12:33;;;;;;;8.57;6.47;;;12.80;99.90;;;;;;5052378;28;20063;-56
2022/01/01 09:15:17;;;;;;;9.02;6.20;;;12.80;99.90;;;;;;5042905;28;20510;-58
2022/01/01 09:18:01;;;;;;;11.05;6.50;;;12.90;99.90;;;;;;5039831;28;20424;-56
2022/01/01 09:20:45;;;;;;;10.23;6.50;;;12.90;99.90;;;;;;5055156;28;20106;-56
2022/01/01 09:23:29;;;;;;;9.82;6.32;;;12.90;99.90;;;;;;5055105;28;20128;-57
2022/01/01 09:26:13;;;;;;;9.63;6.53;;;12.90;99.90;;;;;;5055186;28;20040;-56
2022/01/01 09:28:57;;;;;;;12.45;6.57;;;12.90;99.90;;;;;;5055401;28;20499;-58
2022/01/01 09:31:43;;;;;;;12.00;6.90;;;12.90;99.90;;;;;;5054508;28;20086;-52
2022/01/01 09:34:28;;;;;;;11.68;6.53;;;12.90;99.90;;;;;;5054235;28;20263;-53
2022/01/01 09:37:12;;;;;;;12.18;6.45;;;12.90;99.90;;;;;;5054741;28;20032;-55
2022/01/01 09:39:57;;;;;;;10.82;6.13;;;12.90;99.90;;;;;;5054092;28;20043;-54
2022/01/01 09:42:42;;;;;;;10.25;6.80;;;13.00;99.90;;;;;;5050158;28;20041;-60
2022/01/01 09:45:28;;;;;;;10.82;6.95;;;13.00;99.90;;;;;;5051678;28;20068;-56
2022/01/01 09:48:12;;;;;;;9.57;6.22;;;13.00;99.90;;;;;;5054745;28;20044;-60
2022/01/01 09:51:00;;;;;;;11.95;7.47;;;13.10;99.90;;;;;;5053074;28;20036;-58
2022/01/01 09:53:44;;;;;;;9.73;6.50;;;13.00;99.90;;;;;;5054566;28;20040;-51
2022/01/01 09:56:29;;;;;;;8.18;5.78;;;13.00;99.90;;;;;;5054849;28;20067;-59
2022/01/01 09:59:14;;;;;;;10.57;6.50;;;13.00;99.90;;;;;;5055191;28;20609;-52
2022/01/01 10:01:59;;;;;;;10.20;6.20;;;13.00;99.90;;;;;;5056212;28;20637;-55
2022/01/01 10:04:50;;;;;;;8.98;6.18;;;13.00;99.90;;;;;;5053520;28;20032;-57
2022/01/01 10:07:34;;;;;;;8.95;6.20;;;13.10;99.90;;;;;;5044966;28;20060;-55
2022/01/01 10:10:21;;;;;;;14.47;7.10;;;13.10;99.90;;;;;;5053950;28;20072;-52
2022/01/01 10:13:11;;;;;;;12.70;7.25;;;13.00;99.90;;;;;;5053347;28;20035;-59
2022/01/01 10:15:57;;;;;;;13.52;6.72;;;12.90;99.90;;;;;;5053585;28;20122;-57
2022/01/01 10:18:47;;;;;;;9.65;6.00;;;13.00;99.90;;;;;;5053460;28;20090;-52
2022/01/01 10:21:37;;;;;;;11.05;6.38;;;13.00;99.90;;;;;;5053161;28;20088;-58
2022/01/01 10:24:40;;;;;;;11.23;6.28;;;13.10;99.90;;;;;;5052655;28;20035;-53
2022/01/01 10:27:43;;;;;;;10.30;6.53;;;13.20;99.90;;;;;;5052597;28;20717;-56
2022/01/01 10:30:36;;;;;;;13.45;6.82;;;13.20;99.90;;;;;;5034045;28;20044;-57
2022/01/01 10:33:22;;;;;;;14.18;5.85;;;13.20;99.90;;;;;;5037879;28;20565;-54
2022/01/01 10:36:10;;;;;;;12.40;6.55;;;13.20;99.90;;;;;;5047174;28;20040;-52
2022/01/01 10:39:07;;;;;;;13.00;6.55;;;13.20;99.90;;;;;;5044678;28;20063;-60
2022/01/01 10:41:58;;;;;;;13.27;6.60;;;13.30;99.90;;;;;;5053615;28;20507;-55
2022/01/01 10:44:47;;;;;;;9.73;6.20;;;13.30;99.90;;;;;;5052754;28;20455;-60
2022/01/01 10:47:33;;;;;;;11.77;6.57;;;13.20;99.90;;;;;;5052976;28;20028;-58
2022/01/01 10:50:17;;;;;;;11.20;6.30;;;13.20;99.90;;;;;;5051958;28;20044;-55
2022/01/01 10:53:25;;;;;;;10.90;6.32;;;13.20;99.90;;;;;;5052628;28;20163;-57
2022/01/01 10:56:17;;;;;;;13.38;6.47;;;13.20;99.90;;;;;;5052345;28;20044;-57
2022/01/01 10:59:03;;;;;;;10.85;6.63;;;13.30;99.90;;;;;;5052081;28;20047;-56
2022/01/01 11:01:56;;;;;;;14.85;7.38;;;13.30;99.90;;;;;;5052835;28;20037;-57
2022/01/01 11:04:41;;;;;;;11.70;7.38;;;13.20;99.90;;;;;;5052752;28;20051;-57
2022/01/01 11:07:30;;;;;;;10.93;6.15;;;13.30;99.90;;;;;;5050511;28;20158;-57
2022/01/01 11:10:15;;;;;;;12.65;7.07;;;13.40;99.90;;;;;;5050846;28;20163;-54
2022/01/01 11:13:00;;;;;;;11.07;7.10;;;13.30;99.90;;;;;;5051375;28;20562;-59
2022/01/01 11:15:45;;;;;;;14.38;6.88;;;13.40;99.90;;;;;;5049312;28;20048;-56
2022/01/01 11:18:31;;;;;;;11.73;6.57;;;13.50;99.90;;;;;;5052183;28;20095;-57
2022/01/01 11:21:15;;;;;;;12.70;7.60;;;13.50;99.90;;;;;;5052078;28;20036;-58
2022/01/01 11:24:01;;;;;;;13.05;6.90;;;13.40;99.90;;;;;;5054401;28;20164;-54
2022/01/01 11:26:46;;;;;;;12.73;7.63;;;13.40;99.90;;;;;;5052282;28;20040;-55
2022/01/01 11:29:30;;;;;;;;;;;13.50;99.90;;;;;;5038800;28;20512;-62
2022/01/01 11:32:18;;;;;;;11.77;7.30;;;13.50;99.90;;;;;;5055623;28;19924;-59
2022/01/01 11:35:15;;;;;;;17.48;7.72;;;13.50;99.90;;;;;;5054827;28;20044;-57
2022/01/01 11:38:08;;;;;;;12.75;7.07;;;13.50;99.90;;;;;;5052461;28;20032;-56
2022/01/01 11:41:09;;;;;;;15.70;8.80;;;13.50;99.90;;;;;;5051710;28;20071;-56
2022/01/01 11:43:55;;;;;;;11.23;7.22;;;13.60;99.90;;;;;;5048976;28;20151;-58
2022/01/01 11:46:56;;;;;;;14.23;8.63;;;13.60;99.90;;;;;;5048764;28;20075;-56
2022/01/01 11:49:40;;;;;;;18.00;8.73;;;13.60;99.90;;;;;;5049939;28;20028;-58
2022/01/01 11:52:42;;;;;;;13.77;8.57;;;13.60;99.90;;;;;;5050998;28;20044;-57
2022/01/01 11:55:26;;;;;;;15.77;8.10;;;13.50;99.90;;;;;;5050364;28;20439;-56
2022/01/01 11:58:13;;;;;;;12.10;7.53;;;13.50;99.90;;;;;;5049208;28;20040;-56
2022/01/01 12:00:57;;;;;;;14.50;7.95;;;13.50;99.90;;;;;;5051655;28;20056;-57
2022/01/01 12:03:54;;;;;;;15.77;8.65;;;13.50;99.90;;;;;;5048956;28;20441;-56
2022/01/01 12:06:38;;;;;;;12.05;8.20;;;13.50;99.90;;;;;;5051641;28;20082;-56
2022/01/01 12:09:23;;;;;;;11.07;7.50;;;13.50;99.90;;;;;;5053855;28;20028;-56
2022/01/01 12:12:07;;;;;;;17.88;7.47;;;13.60;99.90;;;;;;5050794;28;20036;-56
2022/01/01 12:14:52;;;;;;;12.67;8.03;;;13.60;99.90;;;;;;5052609;28;20057;-55
2022/01/01 12:17:42;;;;;;;14.05;8.07;;;13.60;99.90;;;;;;5054337;28;20048;-57
2022/01/01 12:20:31;;;;;;;14.40;7.72;;;13.70;99.90;;;;;;5054193;28;20040;-54
2022/01/01 12:23:16;;;;;;;13.82;7.60;;;13.60;99.90;;;;;;5054986;28;20028;-54
2022/01/01 12:26:07;;;;;;;15.65;6.95;;;13.70;99.90;;;;;;5055149;28;20091;-53
2022/01/01 12:28:52;;;;;;;11.25;7.30;;;13.70;99.90;;;;;;5052234;28;20262;-54
2022/01/01 12:31:53;;;;;;;14.15;7.63;;;13.70;99.90;;;;;;5053993;28;20044;-58
2022/01/01 12:34:37;;;;;;;12.70;7.47;;;13.60;99.90;;;;;;5054157;28;20578;-56
2022/01/01 12:37:38;;;;;;;13.82;7.60;;;13.60;99.90;;;;;;5054605;28;20088;-54
2022/01/01 12:40:31;;;;;;;14.27;8.25;;;13.60;99.90;;;;;;5052081;28;20476;-58
2022/01/01 12:43:16;;;;;;;14.52;7.70;;;13.70;99.90;;;;;;5053058;28;20040;-57
2022/01/01 12:46:01;;;;;;;16.42;7.85;;;13.70;99.90;;;;;;5053781;28;20036;-57
2022/01/01 12:48:46;;;;;;;13.43;8.10;;;13.70;99.90;;;;;;5051331;28;20031;-56
2022/01/01 12:51:36;;;;;;;11.50;7.95;;;13.70;99.90;;;;;;5053620;28;20036;-54
2022/01/01 12:54:21;;;;;;;14.00;8.13;;;13.70;99.90;;;;;;5051690;28;20036;-57
2022/01/01 12:57:05;;;;;;;13.65;8.00;;;13.60;99.90;;;;;;5054107;28;20040;-56
2022/01/01 12:59:49;;;;;;;11.73;7.72;;;13.60;99.90;;;;;;5053330;28;20044;-57
2022/01/01 13:02:34;;;;;;;11.20;7.88;;;13.60;99.90;;;;;;5051905;28;20043;-58
2022/01/01 13:05:23;;;;;;;11.03;7.67;;;13.60;99.90;;;;;;5043916;28;20091;-53
2022/01/01 13:08:08;;;;;;;11.35;7.95;;;13.70;99.90;;;;;;5050303;28;20036;-53
2022/01/01 13:10:53;;;;;;;13.35;8.32;;;13.70;99.90;;;;;;5043493;28;20037;-52
2022/01/01 13:13:37;;;;;;;14.35;8.15;;;13.70;99.90;;;;;;5050638;28;20507;-57
2022/01/01 13:16:22;;;;;;;12.63;7.70;;;13.70;99.90;;;;;;5047582;28;20040;-57
2022/01/01 13:19:06;;;;;;;12.40;8.20;;;13.70;99.90;;;;;;5053086;28;20064;-56
2022/01/01 13:21:52;;;;;;;12.43;8.60;;;13.70;99.90;;;;;;5043560;28;20056;-59
2022/01/01 13:24:37;;;;;;;13.98;8.55;;;13.60;99.90;;;;;;5053787;28;20181;-56
2022/01/01 13:27:29;;;;;;;10.30;8.15;;;13.60;99.90;;;;;;5053571;28;20040;-58
2022/01/01 13:30:13;;;;;;;16.38;8.18;;;13.60;99.90;;;;;;5051076;28;20041;-58
2022/01/01 13:32:58;;;;;;;11.82;7.75;;;13.70;99.90;;;;;;5053871;28;20523;-54
2022/01/01 13:35:53;;;;;;;13.13;7.90;;;13.80;99.90;;;;;;5046198;28;20051;-58
2022/01/01 13:38:37;;;;;;;;;;;13.80;99.90;;;;;;5046764;28;20033;-55
2022/01/01 13:41:22;;;;;;;14.48;8.27;;;13.80;99.90;;;;;;5054297;28;19932;-59
2022/01/01 13:44:20;;;;;;;10.75;7.82;;;13.80;99.90;;;;;;5054090;28;20102;-56
2022/01/01 13:47:15;;;;;;;12.55;7.20;;;13.70;99.90;;;;;;5054601;28;20107;-58
2022/01/01 13:50:11;;;;;;;13.65;9.05;;;13.80;99.90;;;;;;5052586;28;20035;-59
2022/01/01 13:52:58;;;;;;;12.55;7.72;;;13.90;99.90;;;;;;5053523;28;20047;-56
2022/01/01 13:55:54;;;;;;;11.23;8.10;;;13.90;99.90;;;;;;5052911;28;20507;-59
2022/01/01 13:58:40;;;;;;;10.88;8.00;;;13.90;99.90;;;;;;5053531;28;20110;-58
2022/01/01 14:01:26;;;;;;;15.82;7.47;;;13.90;99.90;;;;;;5045577;28;20038;-57
2022/01/01 14:04:11;;;;;;;11.93;7.32;;;13.90;99.90;;;;;;5051911;28;20106;-59
2022/01/01 14:07:06;;;;;;;13.15;7.30;;;14.00;99.90;;;;;;5052834;28;20087;-56
2022/01/01 14:10:00;;;;;;;;;;;14.10;99.90;;;;;;5051606;28;20031;-60
2022/01/01 14:12:48;;;;;;;14.38;7.35;;;14.10;99.90;;;;;;5051976;28;20019;-60
2022/01/01 14:15:34;;;;;;;12.70;7.25;;;14.10;99.90;;;;;;5052309;28;20151;-58